Time;durP1;ratioP1;P1;durP2;ratioP2;P2;SDS_P1;SDS_P2;PMS_P1;PMS_P2;Temp;Humidity;BMP_temperature;BMP_pressure;BME280_temperature;BME280_humidity;BME280_pressure;Samples;Min_cycle;Max_cycle;Signal;HPM_P1;HPM_P2
2021/04/04 00:01:03;;;;;;;6.50;2.30;;;;;;;;;;5039730;28;20025;-67
2021/04/04 00:03:28;;;;;;;13.07;1.83;;;;;;;;;;5045102;28;20765;-67
2021/04/04 00:05:53;;;;;;;13.97;2.87;;;;;;;;;;5052824;28;20052;-66
2021/04/04 00:08:18;;;;;;;9.60;1.80;;;;;;;;;;5051279;28;20028;-67
2021/04/04 00:10:44;;;;;;;7.87;3.27;;;;;;;;;;5051502;28;20470;-67
2021/04/04 00:13:09;;;;;;;15.17;2.60;;;;;;;;;;5051503;28;20013;-66
2021/04/04 00:15:34;;;;;;;12.20;2.27;;;;;;;;;;5050905;28;20031;-67
2021/04/04 00:18:00;;;;;;;16.10;2.37;;;;;;;;;;5051245;28;20013;-67
2021/04/04 00:20:25;;;;;;;13.30;2.20;;;;;;;;;;5051640;28;20473;-67
2021/04/04 00:22:50;;;;;;;11.27;2.00;;;;;;;;;;5051357;28;20075;-66
2021/04/04 00:25:16;;;;;;;9.77;1.97;;;;;;;;;;5051366;28;20029;-67
2021/04/04 00:27:42;;;;;;;17.13;2.83;;;;;;;;;;5050874;28;20025;-66
2021/04/04 00:30:08;;;;;;;9.50;1.80;;;;;;;;;;5051996;28;20370;-67
2021/04/04 00:32:34;;;;;;;9.30;1.93;;;;;;;;;;5047324;28;20033;-67
2021/04/04 00:34:59;;;;;;;13.87;3.17;;;;;;;;;;5052832;28;20251;-67
2021/04/04 00:37:25;;;;;;;13.23;2.13;;;;;;;;;;5051202;28;20017;-67
2021/04/04 00:39:50;;;;;;;10.97;2.20;;;;;;;;;;5053864;28;20032;-67
2021/04/04 00:42:15;;;;;;;6.77;1.50;;;;;;;;;;5053166;28;20025;-67
2021/04/04 00:44:40;;;;;;;10.47;1.60;;;;;;;;;;5054792;28;20033;-66
2021/04/04 00:47:06;;;;;;;9.13;2.23;;;;;;;;;;5053002;28;20033;-67
2021/04/04 00:49:31;;;;;;;10.37;1.90;;;;;;;;;;5050137;28;20029;-67
2021/04/04 00:51:56;;;;;;;6.17;2.37;;;;;;;;;;5048646;28;20097;-67
2021/04/04 00:54:22;;;;;;;11.67;2.13;;;;;;;;;;5054878;28;20032;-67
2021/04/04 00:56:48;;;;;;;8.57;2.07;;;;;;;;;;5051832;28;20436;-67
2021/04/04 00:59:14;;;;;;;11.30;2.00;;;;;;;;;;5051896;28;20458;-67
2021/04/04 01:01:39;;;;;;;10.00;1.90;;;;;;;;;;5054643;28;20103;-67
2021/04/04 01:06:47;;;;;;;8.43;1.50;;;;;;;;;;5080175;28;20062;-68
2021/04/04 01:09:12;;;;;;;7.40;2.43;;;;;;;;;;5084660;28;20039;-67
2021/04/04 01:11:46;;;;;;;13.50;2.77;;;;;;;;;;5089358;28;20028;-67
2021/04/04 01:14:25;;;;;;;11.77;1.70;;;;;;;;;;5091767;28;20024;-68
2021/04/04 01:16:52;;;;;;;7.57;2.00;;;;;;;;;;5086860;28;20278;-67
2021/04/04 01:19:17;;;;;;;10.70;2.10;;;;;;;;;;5086058;28;20282;-68
2021/04/04 01:21:46;;;;;;;11.17;2.10;;;;;;;;;;5087632;28;20311;-68
2021/04/04 01:24:24;;;;;;;8.83;1.80;;;;;;;;;;5091484;28;20077;-68
2021/04/04 01:26:52;;;;;;;13.23;1.97;;;;;;;;;;5088165;28;20307;-68
2021/04/04 01:29:21;;;;;;;8.07;1.73;;;;;;;;;;5082823;28;20381;-68
2021/04/04 01:31:47;;;;;;;12.47;1.97;;;;;;;;;;5079719;28;20281;-67
2021/04/04 01:34:15;;;;;;;9.63;1.67;;;;;;;;;;5093639;28;20730;-68
2021/04/04 01:36:40;;;;;;;14.93;2.70;;;;;;;;;;5081875;28;20282;-68
2021/04/04 01:39:07;;;;;;;8.30;1.63;;;;;;;;;;5087984;28;20277;-68
2021/04/04 01:41:34;;;;;;;6.77;1.90;;;;;;;;;;5087705;28;20036;-71
2021/04/04 01:44:05;;;;;;;7.33;1.50;;;;;;;;;;5074962;28;20290;-68
2021/04/04 01:46:31;;;;;;;13.07;2.03;;;;;;;;;;5086364;28;20754;-69
2021/04/04 01:48:56;;;;;;;14.60;1.97;;;;;;;;;;5087068;28;20300;-68
2021/04/04 01:51:23;;;;;;;5.97;1.70;;;;;;;;;;5078165;28;20926;-68
2021/04/04 01:53:50;;;;;;;11.57;1.80;;;;;;;;;;5084393;28;20516;-68
2021/04/04 01:56:15;;;;;;;8.03;1.70;;;;;;;;;;5088799;28;21014;-68
2021/04/04 01:58:42;;;;;;;12.43;2.10;;;;;;;;;;5086384;28;20297;-68
2021/04/04 02:01:07;;;;;;;7.63;1.63;;;;;;;;;;5090001;28;20103;-68
2021/04/04 02:03:34;;;;;;;8.33;1.83;;;;;;;;;;5080303;28;20297;-68
2021/04/04 02:05:59;;;;;;;12.60;1.70;;;;;;;;;;5060720;28;20036;-68
2021/04/04 02:08:25;;;;;;;5.43;1.50;;;;;;;;;;5070218;28;20277;-68
2021/04/04 02:10:51;;;;;;;10.27;2.10;;;;;;;;;;5066958;28;20062;-68
2021/04/04 02:13:17;;;;;;;10.33;1.97;;;;;;;;;;5073248;28;20028;-68
2021/04/04 02:15:43;;;;;;;11.47;1.80;;;;;;;;;;5067486;28;20032;-68
2021/04/04 02:18:09;;;;;;;8.90;1.43;;;;;;;;;;5073651;28;20788;-68
2021/04/04 02:20:34;;;;;;;10.70;2.00;;;;;;;;;;5070366;28;20527;-68
2021/04/04 02:23:02;;;;;;;7.67;1.77;;;;;;;;;;5073507;28;20085;-68
2021/04/04 02:25:27;;;;;;;7.60;1.90;;;;;;;;;;5064030;28;20136;-68
2021/04/04 02:27:52;;;;;;;10.30;1.70;;;;;;;;;;5063674;28;20302;-68
2021/04/04 02:30:18;;;;;;;11.57;2.40;;;;;;;;;;5070672;28;20035;-68
2021/04/04 02:32:45;;;;;;;10.07;1.93;;;;;;;;;;5072309;28;20031;-68
2021/04/04 02:35:11;;;;;;;11.40;1.60;;;;;;;;;;5072427;28;20020;-67
2021/04/04 02:37:39;;;;;;;10.23;2.03;;;;;;;;;;5073265;28;20305;-67
2021/04/04 02:40:17;;;;;;;8.50;1.77;;;;;;;;;;5070570;28;20492;-67
2021/04/04 02:42:45;;;;;;;5.70;1.50;;;;;;;;;;5062027;28;20263;-67
2021/04/04 02:45:10;;;;;;;5.83;1.97;;;;;;;;;;5070043;28;20291;-67
2021/04/04 02:47:50;;;;;;;7.10;1.80;;;;;;;;;;5072593;28;20297;-67
2021/04/04 02:50:16;;;;;;;6.13;1.70;;;;;;;;;;5069090;28;20033;-67
2021/04/04 02:52:42;;;;;;;7.70;1.40;;;;;;;;;;5072315;28;20278;-67
2021/04/04 02:55:09;;;;;;;11.43;1.70;;;;;;;;;;5063357;28;20375;-67
2021/04/04 02:57:35;;;;;;;9.20;2.50;;;;;;;;;;5071357;28;20293;-67
2021/04/04 03:00:03;;;;;;;7.30;1.97;;;;;;;;;;5070146;28;20293;-67
2021/04/04 03:02:28;;;;;;;6.60;2.07;;;;;;;;;;5072196;28;20302;-67
2021/04/04 03:04:55;;;;;;;5.77;1.80;;;;;;;;;;5069296;28;20329;-69
2021/04/04 03:07:23;;;;;;;13.90;2.80;;;;;;;;;;5071608;28;20488;-67
2021/04/04 03:09:49;;;;;;;11.13;2.23;;;;;;;;;;5070668;28;20738;-67
2021/04/04 03:12:15;;;;;;;8.07;1.80;;;;;;;;;;5072664;28;20803;-67
2021/04/04 03:14:41;;;;;;;8.60;1.97;;;;;;;;;;5071243;28;20274;-67
2021/04/04 03:17:08;;;;;;;6.53;1.90;;;;;;;;;;5071468;28;20372;-67
2021/04/04 03:19:34;;;;;;;9.00;1.93;;;;;;;;;;5066478;28;20310;-67
2021/04/04 03:22:00;;;;;;;13.43;2.50;;;;;;;;;;5063625;28;20282;-67
2021/04/04 03:24:26;;;;;;;8.27;1.93;;;;;;;;;;5067371;28;20275;-67
2021/04/04 03:26:52;;;;;;;8.00;2.07;;;;;;;;;;5071424;28;20047;-67
2021/04/04 03:29:18;;;;;;;6.63;1.67;;;;;;;;;;5068201;28;20291;-67
2021/04/04 03:31:44;;;;;;;7.77;1.30;;;;;;;;;;5065634;28;20028;-67
2021/04/04 03:34:09;;;;;;;13.23;2.00;;;;;;;;;;5070483;28;20509;-67
2021/04/04 03:36:35;;;;;;;6.23;2.00;;;;;;;;;;5071519;28;20154;-67
2021/04/04 03:39:00;;;;;;;4.13;1.60;;;;;;;;;;5071561;28;20040;-67
2021/04/04 03:41:27;;;;;;;5.73;1.73;;;;;;;;;;5070907;28;20468;-67
2021/04/04 03:43:52;;;;;;;8.13;1.67;;;;;;;;;;5070881;28;20032;-67
2021/04/04 03:46:21;;;;;;;8.60;2.07;;;;;;;;;;5067955;28;20294;-67
2021/04/04 03:48:46;;;;;;;9.20;2.00;;;;;;;;;;5070676;28;20090;-67
2021/04/04 03:51:12;;;;;;;8.27;1.90;;;;;;;;;;5069494;28;20283;-67
2021/04/04 03:53:42;;;;;;;4.63;1.57;;;;;;;;;;5069777;28;20384;-67
2021/04/04 03:56:08;;;;;;;7.30;1.83;;;;;;;;;;5071484;28;20052;-67
2021/04/04 03:58:35;;;;;;;7.40;1.80;;;;;;;;;;5071354;28;20290;-67
2021/04/04 04:01:01;;;;;;;3.83;1.57;;;;;;;;;;5064311;28;20278;-67
2021/04/04 04:03:27;;;;;;;6.27;1.67;;;;;;;;;;5069077;28;20275;-67
2021/04/04 04:05:53;;;;;;;4.83;1.30;;;;;;;;;;5058828;28;20865;-67
2021/04/04 04:08:20;;;;;;;10.23;1.90;;;;;;;;;;5069371;28;20040;-67
2021/04/04 04:10:48;;;;;;;8.13;1.63;;;;;;;;;;5059799;28;20294;-67
2021/04/04 04:13:14;;;;;;;4.50;1.50;;;;;;;;;;5064087;28;20285;-69
2021/04/04 04:15:39;;;;;;;8.43;1.93;;;;;;;;;;5069324;28;20290;-69
2021/04/04 04:18:05;;;;;;;6.63;1.33;;;;;;;;;;5071333;28;20044;-67
2021/04/04 04:20:31;;;;;;;6.97;1.70;;;;;;;;;;5061224;28;20503;-67
2021/04/04 04:22:57;;;;;;;6.10;2.13;;;;;;;;;;5069801;28;20025;-67
2021/04/04 04:25:23;;;;;;;5.80;1.73;;;;;;;;;;5069224;28;20032;-67
2021/04/04 04:27:49;;;;;;;8.33;1.83;;;;;;;;;;5070761;28;20162;-67
2021/04/04 04:30:14;;;;;;;9.90;1.60;;;;;;;;;;5070746;28;20361;-67
2021/04/04 04:32:41;;;;;;;6.60;1.60;;;;;;;;;;5070870;28;20066;-67
2021/04/04 04:35:07;;;;;;;5.97;1.70;;;;;;;;;;5071238;28;20020;-67
2021/04/04 04:37:34;;;;;;;8.77;1.90;;;;;;;;;;5070904;28;20530;-67
2021/04/04 04:40:02;;;;;;;9.27;1.60;;;;;;;;;;5067812;28;20278;-69
2021/04/04 04:42:27;;;;;;;8.33;1.60;;;;;;;;;;5070460;28;20266;-67
2021/04/04 04:44:53;;;;;;;6.40;1.70;;;;;;;;;;5061492;28;20287;-67
2021/04/04 04:47:19;;;;;;;12.30;1.80;;;;;;;;;;5066529;28;20024;-67
2021/04/04 04:49:44;;;;;;;5.43;1.40;;;;;;;;;;5064574;28;20283;-67
2021/04/04 04:52:13;;;;;;;7.43;1.83;;;;;;;;;;5064387;28;20514;-67
2021/04/04 04:54:39;;;;;;;7.73;1.80;;;;;;;;;;5064518;28;20055;-67
2021/04/04 04:57:05;;;;;;;7.30;1.77;;;;;;;;;;5069178;28;20282;-67
2021/04/04 04:59:30;;;;;;;4.93;1.47;;;;;;;;;;5066767;28;20804;-67
2021/04/04 05:01:56;;;;;;;4.67;1.40;;;;;;;;;;5067388;28;20033;-67
2021/04/04 05:04:21;;;;;;;3.90;1.40;;;;;;;;;;5067933;28;20033;-67
2021/04/04 05:06:48;;;;;;;5.23;2.03;;;;;;;;;;5068862;28;20048;-67
2021/04/04 05:09:13;;;;;;;5.27;2.00;;;;;;;;;;5069964;28;20064;-67
2021/04/04 05:11:44;;;;;;;5.00;1.67;;;;;;;;;;5070194;28;20313;-67
2021/04/04 05:14:12;;;;;;;7.23;1.77;;;;;;;;;;5069572;28;20021;-67
2021/04/04 05:16:38;;;;;;;6.37;1.83;;;;;;;;;;5056868;28;20263;-69
2021/04/04 05:19:06;;;;;;;8.73;1.53;;;;;;;;;;5069189;28;20615;-67
2021/04/04 05:21:31;;;;;;;9.83;1.80;;;;;;;;;;5068233;28;20100;-67
2021/04/04 05:23:57;;;;;;;4.37;1.50;;;;;;;;;;5068418;28;20362;-67
2021/04/04 05:26:29;;;;;;;6.83;1.77;;;;;;;;;;5071396;28;20024;-67
2021/04/04 05:28:55;;;;;;;10.95;1.70;;;;;;;;;;5072105;28;20031;-67
2021/04/04 05:31:21;;;;;;;7.20;1.80;;;;;;;;;;5072369;28;20480;-67
2021/04/04 05:33:46;;;;;;;7.60;1.60;;;;;;;;;;5074456;28;20004;-67
2021/04/04 05:36:11;;;;;;;10.97;1.77;;;;;;;;;;5068271;28;20077;-67
2021/04/04 05:38:36;;;;;;;8.53;1.90;;;;;;;;;;5074938;28;20021;-67
2021/04/04 05:41:02;;;;;;;7.53;1.77;;;;;;;;;;5069619;28;20023;-67
2021/04/04 05:43:32;;;;;;;10.50;1.60;;;;;;;;;;5074128;28;20023;-67
2021/04/04 05:46:09;;;;;;;8.20;1.47;;;;;;;;;;5072644;28;20419;-67
2021/04/04 05:48:38;;;;;;;6.53;2.07;;;;;;;;;;5074267;28;20262;-67
2021/04/04 05:51:12;;;;;;;6.70;1.50;;;;;;;;;;5071178;28;20799;-67
2021/04/04 05:53:37;;;;;;;7.07;2.80;;;;;;;;;;5073593;28;20271;-67
2021/04/04 05:56:07;;;;;;;7.50;1.90;;;;;;;;;;5073493;28;20781;-67
2021/04/04 05:58:41;;;;;;;4.77;1.57;;;;;;;;;;5073117;28;20016;-67
2021/04/04 06:01:24;;;;;;;8.30;1.60;;;;;;;;;;5069551;28;20346;-67
2021/04/04 06:04:01;;;;;;;7.30;1.53;;;;;;;;;;5074105;28;20267;-67
2021/04/04 06:06:45;;;;;;;7.07;2.13;;;;;;;;;;5070695;28;20827;-67
2021/04/04 06:09:16;;;;;;;11.87;2.30;;;;;;;;;;5071924;28;20279;-67
2021/04/04 06:11:57;;;;;;;7.00;1.80;;;;;;;;;;5073599;28;20266;-67
2021/04/04 06:14:25;;;;;;;9.67;1.67;;;;;;;;;;5069641;28;20307;-67
2021/04/04 06:16:55;;;;;;;7.43;1.70;;;;;;;;;;5060373;28;20299;-67
2021/04/04 06:19:40;;;;;;;9.13;2.10;;;;;;;;;;5067763;28;20287;-67
2021/04/04 06:22:32;;;;;;;8.03;2.10;;;;;;;;;;5061892;28;20286;-67
2021/04/04 06:25:02;;;;;;;8.30;2.43;;;;;;;;;;5061711;28;21290;-67
2021/04/04 06:27:33;;;;;;;10.40;2.30;;;;;;;;;;5072257;28;20317;-67
2021/04/04 06:30:01;;;;;;;14.53;2.63;;;;;;;;;;5068362;28;20340;-67
2021/04/04 06:32:47;;;;;;;13.47;2.37;;;;;;;;;;5073189;28;20274;-67
2021/04/04 06:35:26;;;;;;;7.20;2.10;;;;;;;;;;5067761;28;20283;-67
2021/04/04 06:38:23;;;;;;;9.20;2.10;;;;;;;;;;5069580;28;20282;-67
2021/04/04 06:40:59;;;;;;;8.30;2.33;;;;;;;;;;5049649;28;20279;-67
2021/04/04 06:43:43;;;;;;;6.57;2.23;;;;;;;;;;5068631;28;20274;-67
2021/04/04 06:46:33;;;;;;;6.43;2.37;;;;;;;;;;5072281;28;20324;-67
2021/04/04 06:48:58;;;;;;;6.83;1.70;;;;;;;;;;5072260;28;20344;-67
2021/04/04 06:51:42;;;;;;;6.83;1.93;;;;;;;;;;5071528;28;20766;-67
2021/04/04 06:54:25;;;;;;;10.47;3.07;;;;;;;;;;5071456;28;20074;-67
2021/04/04 06:56:50;;;;;;;6.40;2.20;;;;;;;;;;5072688;28;20416;-67
2021/04/04 06:59:24;;;;;;;7.47;2.40;;;;;;;;;;5070983;28;20383;-67
2021/04/04 07:01:58;;;;;;;8.13;1.93;;;;;;;;;;5072753;28;20032;-67
2021/04/04 07:04:29;;;;;;;8.60;2.37;;;;;;;;;;5068435;28;20290;-67
2021/04/04 07:07:13;;;;;;;8.83;2.10;;;;;;;;;;5070373;28;20314;-67
2021/04/04 07:09:57;;;;;;;8.77;1.90;;;;;;;;;;5059620;28;20843;-67
2021/04/04 07:12:40;;;;;;;8.00;2.70;;;;;;;;;;5072794;28;20263;-67
2021/04/04 07:15:24;;;;;;;4.73;1.67;;;;;;;;;;5063110;28;20325;-67
2021/04/04 07:18:02;;;;;;;5.93;1.60;;;;;;;;;;5071823;28;20902;-67
2021/04/04 07:20:34;;;;;;;7.67;3.00;;;;;;;;;;5062924;28;20266;-67
2021/04/04 07:23:18;;;;;;;5.93;1.90;;;;;;;;;;5072190;28;20286;-67
2021/04/04 07:26:12;;;;;;;11.60;2.13;;;;;;;;;;5072278;28;20267;-67
2021/04/04 07:28:49;;;;;;;9.50;1.93;;;;;;;;;;4982594;28;20296;-67
2021/04/04 07:31:16;;;;;;;8.17;2.03;;;;;;;;;;5064319;28;21030;-67
2021/04/04 07:34:00;;;;;;;9.47;2.33;;;;;;;;;;5064831;28;20383;-67
2021/04/04 07:36:40;;;;;;;7.43;2.57;;;;;;;;;;5058431;28;20259;-67
2021/04/04 07:39:06;;;;;;;8.07;1.80;;;;;;;;;;5070893;28;20761;-67
2021/04/04 07:41:31;;;;;;;5.07;1.80;;;;;;;;;;5071498;28;20032;-67
2021/04/04 07:43:59;;;;;;;4.27;1.70;;;;;;;;;;5068612;28;20115;-67
2021/04/04 07:46:43;;;;;;;5.83;2.00;;;;;;;;;;5070639;28;20085;-67
2021/04/04 07:49:23;;;;;;;4.33;1.90;;;;;;;;;;5064655;28;20286;-67
2021/04/04 07:51:50;;;;;;;4.40;1.70;;;;;;;;;;5068307;28;20063;-67
2021/04/04 07:54:22;;;;;;;5.53;1.70;;;;;;;;;;5069477;28;20283;-67
2021/04/04 07:56:52;;;;;;;7.05;1.95;;;;;;;;;;5072226;28;20337;-67
2021/04/04 07:59:36;;;;;;;6.20;1.90;;;;;;;;;;5064474;28;20431;-67
2021/04/04 08:02:10;;;;;;;7.07;2.03;;;;;;;;;;5070374;28;20377;-67
2021/04/04 08:04:36;;;;;;;9.47;2.47;;;;;;;;;;5062419;28;20688;-67
2021/04/04 08:07:30;;;;;;;8.47;2.17;;;;;;;;;;5091098;28;20761;-67
2021/04/04 08:10:09;;;;;;;8.60;2.00;;;;;;;;;;5069401;28;20166;-67
2021/04/04 08:12:52;;;;;;;7.47;2.17;;;;;;;;;;5090060;28;20048;-67
2021/04/04 08:15:20;;;;;;;8.57;2.17;;;;;;;;;;5082511;28;20298;-67
2021/04/04 08:17:46;;;;;;;10.10;2.67;;;;;;;;;;5091246;28;20383;-67
2021/04/04 08:20:16;;;;;;;5.50;2.00;;;;;;;;;;5083427;28;20024;-67
2021/04/04 08:22:42;;;;;;;6.97;1.80;;;;;;;;;;5091460;28;20034;-67
2021/04/04 08:25:10;;;;;;;8.43;2.13;;;;;;;;;;5087726;28;20024;-67
2021/04/04 08:27:38;;;;;;;5.77;1.67;;;;;;;;;;5091673;28;20016;-67
2021/04/04 08:30:17;;;;;;;8.93;2.20;;;;;;;;;;5089917;28;20407;-67
2021/04/04 08:32:42;;;;;;;8.53;2.10;;;;;;;;;;5089642;28;20054;-67
2021/04/04 08:35:09;;;;;;;7.20;2.00;;;;;;;;;;5082671;28;20020;-67
2021/04/04 08:37:44;;;;;;;8.10;2.40;;;;;;;;;;5091765;28;20024;-67
2021/04/04 08:40:14;;;;;;;8.17;1.80;;;;;;;;;;5084559;28;20246;-67
2021/04/04 08:42:40;;;;;;;9.33;2.77;;;;;;;;;;5084919;28;20158;-67
2021/04/04 08:45:10;;;;;;;6.77;2.47;;;;;;;;;;5085292;28;20140;-67
2021/04/04 08:47:36;;;;;;;7.97;2.13;;;;;;;;;;5090616;28;20031;-67
2021/04/04 08:50:05;;;;;;;5.83;2.07;;;;;;;;;;5086769;28;20091;-67
2021/04/04 08:52:35;;;;;;;5.57;1.63;;;;;;;;;;5091308;28;20024;-67
2021/04/04 08:55:00;;;;;;;8.50;2.53;;;;;;;;;;5090268;28;20020;-67
2021/04/04 08:57:39;;;;;;;7.37;1.87;;;;;;;;;;5089744;28;20240;-67
2021/04/04 09:00:08;;;;;;;7.17;1.53;;;;;;;;;;5090432;28;20021;-67
2021/04/04 09:02:38;;;;;;;10.20;1.80;;;;;;;;;;5094061;28;20020;-67
2021/04/04 09:05:04;;;;;;;8.47;2.00;;;;;;;;;;5093618;28;20052;-67
2021/04/04 09:07:32;;;;;;;9.23;2.17;;;;;;;;;;5095119;28;20024;-67
2021/04/04 09:09:58;;;;;;;6.20;1.90;;;;;;;;;;5094696;28;20027;-67
2021/04/04 09:12:30;;;;;;;11.20;2.60;;;;;;;;;;5095416;28;20065;-67
2021/04/04 09:15:01;;;;;;;12.15;2.25;;;;;;;;;;5092908;28;20082;-67
2021/04/04 09:17:26;;;;;;;9.07;4.17;;;;;;;;;;5075921;28;20039;-67
2021/04/04 09:19:57;;;;;;;9.00;1.97;;;;;;;;;;5083618;28;20414;-67
2021/04/04 09:22:23;;;;;;;8.37;2.27;;;;;;;;;;5085888;28;20020;-67
2021/04/04 09:24:48;;;;;;;7.33;2.20;;;;;;;;;;5081217;28;20027;-67
2021/04/04 09:27:15;;;;;;;8.93;2.40;;;;;;;;;;5086829;28;20356;-67
2021/04/04 09:29:43;;;;;;;7.77;2.73;;;;;;;;;;5089897;28;20035;-67
2021/04/04 09:32:14;;;;;;;7.43;2.10;;;;;;;;;;5087649;28;20841;-67
2021/04/04 09:34:42;;;;;;;8.38;2.45;;;;;;;;;;5085884;28;20020;-67
2021/04/04 09:37:07;;;;;;;6.73;2.40;;;;;;;;;;5087312;28;20116;-67
2021/04/04 09:39:33;;;;;;;9.57;2.30;;;;;;;;;;5085474;28;20453;-67
2021/04/04 09:41:59;;;;;;;10.70;3.17;;;;;;;;;;5084627;28;20050;-67
2021/04/04 09:44:28;;;;;;;9.20;2.77;;;;;;;;;;5082339;28;20415;-67
2021/04/04 09:46:55;;;;;;;8.97;2.20;;;;;;;;;;5083777;28;20029;-67
2021/04/04 09:49:39;;;;;;;6.27;2.07;;;;;;;;;;5083413;28;20033;-67
2021/04/04 09:52:24;;;;;;;9.67;2.40;;;;;;;;;;5082255;28;20356;-67
2021/04/04 09:54:57;;;;;;;11.47;2.70;;;;;;;;;;5087875;28;20028;-67
2021/04/04 09:57:22;;;;;;;11.83;2.80;;;;;;;;;;5072494;28;20394;-67
2021/04/04 09:59:48;;;;;;;7.13;2.10;;;;;;;;;;5088490;28;20047;-67
2021/04/04 10:02:13;;;;;;;7.07;1.73;;;;;;;;;;5090387;28;20431;-67
2021/04/04 10:04:44;;;;;;;13.93;2.47;;;;;;;;;;5089033;28;20032;-67
2021/04/04 10:07:10;;;;;;;8.30;2.97;;;;;;;;;;5090816;28;20039;-67
2021/04/04 10:09:38;;;;;;;13.37;2.80;;;;;;;;;;5089779;28;20540;-67
2021/04/04 10:12:04;;;;;;;8.90;1.90;;;;;;;;;;5077635;28;20489;-67
2021/04/04 10:14:29;;;;;;;7.80;2.90;;;;;;;;;;5082132;28;20039;-67
2021/04/04 10:17:07;;;;;;;9.50;2.60;;;;;;;;;;5080823;28;20117;-68
2021/04/04 10:19:32;;;;;;;9.43;2.27;;;;;;;;;;5079770;28;20459;-67
2021/04/04 10:22:01;;;;;;;7.80;2.40;;;;;;;;;;5079532;28;20055;-67
2021/04/04 10:24:31;;;;;;;8.93;2.37;;;;;;;;;;5085821;28;20555;-67
2021/04/04 10:27:15;;;;;;;7.43;2.40;;;;;;;;;;5064671;28;20028;-67
2021/04/04 10:29:41;;;;;;;6.90;2.37;;;;;;;;;;5086851;28;20043;-67
2021/04/04 10:32:06;;;;;;;8.57;2.43;;;;;;;;;;5081862;28;20127;-67
2021/04/04 10:34:45;;;;;;;8.97;2.17;;;;;;;;;;5078972;28;20474;-67
2021/04/04 10:37:10;;;;;;;8.30;2.40;;;;;;;;;;5085216;28;20043;-67
2021/04/04 10:39:36;;;;;;;9.53;2.10;;;;;;;;;;5084634;28;20036;-67
2021/04/04 10:42:11;;;;;;;11.40;2.53;;;;;;;;;;5089533;28;20385;-67
2021/04/04 10:44:37;;;;;;;12.70;2.43;;;;;;;;;;5082329;28;20039;-67
2021/04/04 10:47:18;;;;;;;11.63;2.27;;;;;;;;;;5089879;28;20032;-67
2021/04/04 10:49:44;;;;;;;7.93;2.40;;;;;;;;;;5085464;28;20039;-67
2021/04/04 10:52:09;;;;;;;5.37;2.33;;;;;;;;;;5088969;28;20274;-67
2021/04/04 10:54:35;;;;;;;6.10;1.70;;;;;;;;;;5088294;28;20036;-67
2021/04/04 10:57:00;;;;;;;8.43;2.13;;;;;;;;;;5087401;28;20120;-67
2021/04/04 10:59:26;;;;;;;7.77;1.60;;;;;;;;;;5085772;28;20032;-67
2021/04/04 11:01:52;;;;;;;9.10;1.97;;;;;;;;;;5088081;28;20498;-67
2021/04/04 11:04:17;;;;;;;5.60;2.03;;;;;;;;;;5085837;28;20123;-67
2021/04/04 11:06:43;;;;;;;5.03;2.17;;;;;;;;;;5083948;28;20307;-67
2021/04/04 11:09:08;;;;;;;7.30;1.97;;;;;;;;;;5084749;28;20110;-67
2021/04/04 11:11:33;;;;;;;9.87;2.50;;;;;;;;;;5086290;28;20097;-67
2021/04/04 11:14:00;;;;;;;7.80;2.10;;;;;;;;;;5087909;28;20035;-67
2021/04/04 11:16:27;;;;;;;5.57;2.00;;;;;;;;;;5082010;28;20036;-67
2021/04/04 11:18:54;;;;;;;9.23;2.73;;;;;;;;;;5082733;28;20085;-67
2021/04/04 11:21:25;;;;;;;11.50;2.40;;;;;;;;;;5084666;28;20029;-67
2021/04/04 11:23:50;;;;;;;8.17;2.70;;;;;;;;;;5088570;28;20494;-67
2021/04/04 11:26:21;;;;;;;6.83;2.73;;;;;;;;;;5083878;28;20024;-67
2021/04/04 11:29:05;;;;;;;6.67;2.07;;;;;;;;;;5083815;28;20032;-67
2021/04/04 11:31:31;;;;;;;13.93;1.80;;;;;;;;;;5082400;28;20492;-67
2021/04/04 11:34:16;;;;;;;6.33;1.83;;;;;;;;;;5088671;28;20028;-67
2021/04/04 11:36:41;;;;;;;6.47;2.03;;;;;;;;;;5078900;28;20032;-67
2021/04/04 11:39:07;;;;;;;6.93;2.37;;;;;;;;;;5082340;28;20108;-67
2021/04/04 11:41:32;;;;;;;8.47;2.77;;;;;;;;;;5076385;28;20044;-67
2021/04/04 11:44:18;;;;;;;8.53;2.23;;;;;;;;;;5078087;28;20063;-67
2021/04/04 11:46:48;;;;;;;7.13;2.00;;;;;;;;;;5082131;28;20472;-67
2021/04/04 11:49:32;;;;;;;7.67;2.23;;;;;;;;;;5084188;28;20123;-67
2021/04/04 11:51:58;;;;;;;7.87;1.90;;;;;;;;;;5087723;28;20027;-67
2021/04/04 11:54:42;;;;;;;7.83;2.73;;;;;;;;;;5081034;28;20115;-67
2021/04/04 11:57:07;;;;;;;5.67;1.60;;;;;;;;;;5085015;28;20027;-67
2021/04/04 11:59:33;;;;;;;7.60;2.17;;;;;;;;;;5085407;28;20036;-67
2021/04/04 12:01:58;;;;;;;7.60;2.10;;;;;;;;;;5085857;28;20118;-67
2021/04/04 12:04:30;;;;;;;8.97;2.63;;;;;;;;;;5079529;28;20092;-67
2021/04/04 12:07:01;;;;;;;6.32;1.60;;;;;;;;;;5086603;28;20057;-67
2021/04/04 12:09:26;;;;;;;9.80;2.53;;;;;;;;;;5084666;28;20385;-67
2021/04/04 12:11:52;;;;;;;7.37;1.90;;;;;;;;;;5085428;28;20058;-67
2021/04/04 12:14:17;;;;;;;10.67;2.47;;;;;;;;;;5085525;28;20024;-67
2021/04/04 12:16:49;;;;;;;6.90;1.70;;;;;;;;;;5086206;28;20110;-67
2021/04/04 12:19:24;;;;;;;6.97;2.27;;;;;;;;;;5081918;28;20059;-67
2021/04/04 12:21:50;;;;;;;10.37;2.00;;;;;;;;;;5084033;28;20286;-67
2021/04/04 12:24:15;;;;;;;10.40;2.27;;;;;;;;;;5087149;28;20033;-67
2021/04/04 12:26:41;;;;;;;5.93;2.00;;;;;;;;;;5081447;28;20484;-67
2021/04/04 12:29:06;;;;;;;9.03;1.90;;;;;;;;;;5083021;28;20016;-67
2021/04/04 12:31:37;;;;;;;9.57;2.17;;;;;;;;;;5086287;28;20031;-67
2021/04/04 12:34:04;;;;;;;7.67;2.50;;;;;;;;;;5085407;28;20068;-67
2021/04/04 12:36:40;;;;;;;7.23;1.83;;;;;;;;;;5085636;28;20031;-67
2021/04/04 12:39:06;;;;;;;7.97;2.07;;;;;;;;;;5084548;28;20077;-67
2021/04/04 12:41:31;;;;;;;6.53;2.50;;;;;;;;;;5087658;28;20028;-67
2021/04/04 12:43:56;;;;;;;6.73;2.20;;;;;;;;;;5083413;28;20031;-67
2021/04/04 12:46:29;;;;;;;5.77;1.83;;;;;;;;;;5086139;28;20069;-67
2021/04/04 12:48:54;;;;;;;9.93;2.00;;;;;;;;;;5084571;28;20035;-67
2021/04/04 12:51:19;;;;;;;6.93;2.13;;;;;;;;;;5075063;28;20029;-67
2021/04/04 12:53:47;;;;;;;8.07;2.40;;;;;;;;;;5085330;28;20024;-67
2021/04/04 12:56:12;;;;;;;6.30;2.00;;;;;;;;;;5085985;28;20137;-67
2021/04/04 12:58:37;;;;;;;11.30;3.20;;;;;;;;;;5088057;28;20115;-67
2021/04/04 13:01:03;;;;;;;5.03;1.90;;;;;;;;;;5086552;28;20035;-67
2021/04/04 13:03:36;;;;;;;10.73;1.90;;;;;;;;;;5086685;28;20026;-67
2021/04/04 13:06:01;;;;;;;;;;;;;;;;;;5083136;28;20108;-67
2021/04/04 13:08:28;;;;;;;7.83;2.27;;;;;;;;;;5085455;28;19916;-67
2021/04/04 13:10:56;;;;;;;5.60;2.40;;;;;;;;;;5080404;28;20058;-67
2021/04/04 13:13:25;;;;;;;8.50;2.10;;;;;;;;;;5087844;28;20047;-67
2021/04/04 13:15:50;;;;;;;7.17;1.67;;;;;;;;;;5078276;28;20359;-67
2021/04/04 13:18:35;;;;;;;12.57;2.87;;;;;;;;;;5080009;28;20351;-67
2021/04/04 13:21:00;;;;;;;5.87;1.70;;;;;;;;;;5078398;28;20077;-67
2021/04/04 13:23:26;;;;;;;7.47;2.20;;;;;;;;;;5086039;28;20423;-68
2021/04/04 13:25:52;;;;;;;8.03;2.27;;;;;;;;;;5085412;28;20590;-68
2021/04/04 13:28:24;;;;;;;5.50;2.30;;;;;;;;;;5082974;28;20363;-68
2021/04/04 13:30:49;;;;;;;9.60;2.00;;;;;;;;;;5085087;28;20020;-68
2021/04/04 13:33:15;;;;;;;6.10;2.00;;;;;;;;;;5074382;28;20503;-68
2021/04/04 13:35:40;;;;;;;9.10;2.30;;;;;;;;;;5076222;28;20016;-68
2021/04/04 13:38:06;;;;;;;8.57;2.13;;;;;;;;;;5084892;28;20060;-68
2021/04/04 13:40:31;;;;;;;5.47;1.90;;;;;;;;;;5081644;28;20442;-68
2021/04/04 13:43:01;;;;;;;9.03;2.40;;;;;;;;;;5081159;28;20485;-68
2021/04/04 13:45:32;;;;;;;10.40;1.97;;;;;;;;;;5081112;28;20040;-68
2021/04/04 13:47:58;;;;;;;7.43;2.10;;;;;;;;;;5089205;28;20063;-68
2021/04/04 13:50:23;;;;;;;7.63;2.30;;;;;;;;;;5080286;28;20102;-68
2021/04/04 13:52:48;;;;;;;9.60;2.17;;;;;;;;;;5088687;28;20444;-68
2021/04/04 13:55:24;;;;;;;8.90;2.60;;;;;;;;;;5087241;28;20024;-68
2021/04/04 13:57:50;;;;;;;8.80;2.20;;;;;;;;;;5086930;28;20059;-68
2021/04/04 14:00:15;;;;;;;11.40;2.47;;;;;;;;;;5083569;28;20058;-68
2021/04/04 14:02:41;;;;;;;7.23;2.10;;;;;;;;;;5085283;28;20024;-68
2021/04/04 14:05:23;;;;;;;9.60;2.40;;;;;;;;;;5088075;28;20050;-68
2021/04/04 14:07:48;;;;;;;8.70;2.30;;;;;;;;;;5088686;28;20020;-68
2021/04/04 14:10:14;;;;;;;7.43;2.40;;;;;;;;;;5086185;28;20042;-68
2021/04/04 14:12:40;;;;;;;6.70;2.00;;;;;;;;;;5088156;28;20831;-68
2021/04/04 14:15:05;;;;;;;6.33;2.03;;;;;;;;;;5087237;28;20028;-68
2021/04/04 14:17:30;;;;;;;8.97;2.70;;;;;;;;;;5085494;28;20024;-68
2021/04/04 14:19:56;;;;;;;16.00;2.40;;;;;;;;;;5081786;28;20023;-68
2021/04/04 14:22:21;;;;;;;10.53;2.97;;;;;;;;;;5088634;28;20031;-68
2021/04/04 14:24:46;;;;;;;7.27;2.53;;;;;;;;;;5086724;28;20448;-68
2021/04/04 14:27:11;;;;;;;8.47;2.10;;;;;;;;;;5087466;28;20067;-68
2021/04/04 14:29:37;;;;;;;7.33;2.27;;;;;;;;;;5085536;28;20363;-68
2021/04/04 14:32:05;;;;;;;17.93;3.67;;;;;;;;;;5088419;28;20039;-68
2021/04/04 14:34:31;;;;;;;8.80;2.87;;;;;;;;;;5088673;28;20038;-68
2021/04/04 14:36:56;;;;;;;6.50;3.00;;;;;;;;;;5088506;28;20027;-68
2021/04/04 14:39:21;;;;;;;8.80;2.63;;;;;;;;;;5082398;28;20115;-68
2021/04/04 14:41:47;;;;;;;8.40;2.23;;;;;;;;;;5090360;28;20032;-68
2021/04/04 14:46:38;;;;;;;8.03;2.03;;;;;;;;;;5090282;28;20081;-68
2021/04/04 14:49:04;;;;;;;7.20;2.73;;;;;;;;;;5083031;28;20496;-68
2021/04/04 14:51:29;;;;;;;7.07;2.60;;;;;;;;;;5078071;28;20387;-68
2021/04/04 14:53:54;;;;;;;5.63;2.27;;;;;;;;;;5088768;28;20513;-68
2021/04/04 14:56:20;;;;;;;9.10;2.43;;;;;;;;;;5077763;28;20077;-68